Time;durP1;ratioP1;P1;durP2;ratioP2;P2;SDS_P1;SDS_P2;PMS_P1;PMS_P2;Temp;Humidity;BMP_temperature;BMP_pressure;BME280_temperature;BME280_humidity;BME280_pressure;Samples;Min_cycle;Max_cycle;Signal;HPM_P1;HPM_P2
2023/04/13 00:01:36;;;;;;;;;;;;;;;;;;;;;
2023/04/13 00:04:18;;;;;;;;;;;;;;;;;;;;;
2023/04/13 00:07:13;;;;;;;7.27;1.97;;;8.20;95.70;;;;;;5034820;28;20256;-92
2023/04/13 00:10:04;;;;;;;;;;;;;;;;;;;;;
2023/04/13 00:13:05;;;;;;;6.93;2.20;;;8.10;99.90;;;;;;5050198;28;20208;-91
2023/04/13 00:16:04;;;;;;;7.83;2.13;;;8.10;99.90;;;;;;5055491;28;20165;-92
2023/04/13 00:22:52;;;;;;;6.33;2.30;;;8.20;99.90;;;;;;5044093;28;20169;-93
2023/04/13 00:26:05;;;;;;;;;;;;;;;;;;;;;
2023/04/13 00:35:40;;;;;;;9.13;1.83;;;8.20;99.90;;;;;;4977984;28;20222;-91
2023/04/13 00:39:00;;;;;;;8.47;2.43;;;8.10;99.90;;;;;;4947846;29;20184;-92
2023/04/13 00:42:02;;;;;;;7.10;2.13;;;8.10;99.90;;;;;;4942260;29;20180;-93
2023/04/13 00:44:42;;;;;;;;;;;;;;;;;;;;;
2023/04/13 00:48:03;;;;;;;5.13;1.97;;;8.00;99.90;;;;;;4955946;28;20278;-92
2023/04/13 00:51:58;;;;;;;;;;;;;;;;;;;;;
2023/04/13 00:54:10;;;;;;;7.67;2.20;;;8.00;99.90;;;;;;4909799;29;20217;-92
2023/04/13 01:00:46;;;;;;;3.77;1.67;;;8.00;99.90;;;;;;4960190;29;20180;-92
2023/04/13 01:03:41;;;;;;;6.33;1.90;;;8.00;99.90;;;;;;4951338;29;20188;-93
2023/04/13 01:06:58;;;;;;;10.87;2.83;;;8.00;99.90;;;;;;4974447;29;20307;-92
2023/04/13 01:10:01;;;;;;;6.90;1.87;;;8.00;99.90;;;;;;4905733;29;20249;-93
2023/04/13 01:27:04;;;;;;;5.40;1.63;;;8.10;99.90;;;;;;4958984;28;20222;-93
2023/04/13 01:29:13;;;;;;;6.57;1.77;;;8.00;99.90;;;;;;4963849;28;20180;-91
2023/04/13 01:31:47;;;;;;;5.43;1.80;;;8.00;99.90;;;;;;4995488;28;20182;-92
2023/04/13 01:38:13;;;;;;;6.93;1.33;;;8.00;99.90;;;;;;4983130;28;20211;-93
2023/04/13 01:45:02;;;;;;;6.20;1.77;;;8.00;99.90;;;;;;5044035;28;20173;-94
2023/04/13 01:48:01;;;;;;;7.90;1.70;;;8.00;99.90;;;;;;4962862;28;20300;-93
2023/04/13 01:54:22;;;;;;;7.33;1.93;;;7.90;99.90;;;;;;5000427;28;20212;-94
2023/04/13 02:11:30;;;;;;;3.27;0.80;;;8.10;98.60;;;;;;5041383;28;20184;-93
2023/04/13 02:23:53;;;;;;;2.97;1.00;;;8.10;97.60;;;;;;4995217;28;20175;-92
2023/04/13 02:30:41;;;;;;;3.00;1.03;;;8.10;97.30;;;;;;4919112;29;20729;-93
2023/04/13 02:37:40;;;;;;;3.10;1.00;;;8.20;98.30;;;;;;4845281;29;20207;-93
2023/04/13 02:40:27;;;;;;;3.23;1.10;;;8.10;98.60;;;;;;4825273;29;20549;-92
2023/04/13 02:43:32;;;;;;;3.50;1.20;;;8.10;99.60;;;;;;4847593;29;20203;-91
2023/04/13 02:56:11;;;;;;;;;;;;;;;;;;;;;
2023/04/13 03:03:12;;;;;;;;;;;;;;;;;;;;;
2023/04/13 03:10:32;;;;;;;2.50;1.00;;;8.00;99.90;;;;;;4924035;29;20185;-91
2023/04/13 03:16:56;;;;;;;3.10;1.03;;;7.90;99.90;;;;;;4838558;29;20186;-92
2023/04/13 03:23:05;;;;;;;3.73;1.20;;;7.80;99.90;;;;;;4975956;28;20192;-92
2023/04/13 03:29:45;;;;;;;;;;;;;;;;;;;;;
2023/04/13 03:32:29;;;;;;;3.07;0.90;;;7.90;99.90;;;;;;4960058;29;20180;-92
2023/04/13 03:43:02;;;;;;;;;;;;;;;;;;;;;
2023/04/13 03:46:19;;;;;;;;;;;;;;;;;;;;;
2023/04/13 03:49:44;;;;;;;3.63;0.97;;;7.70;99.90;;;;;;4937548;29;20245;-92
2023/04/13 03:52:48;;;;;;;5.03;1.30;;;7.80;99.90;;;;;;4831948;29;20209;-92
2023/04/13 03:55:59;;;;;;;2.53;1.10;;;7.80;99.90;;;;;;4825781;29;20238;-94
2023/04/13 03:58:54;;;;;;;4.47;1.10;;;7.90;99.90;;;;;;4829744;29;20249;-92
2023/04/13 04:04:56;;;;;;;4.20;1.10;;;8.00;99.90;;;;;;4920056;28;20537;-93
2023/04/13 04:07:46;;;;;;;5.43;1.60;;;7.90;99.90;;;;;;4999525;28;20186;-93
2023/04/13 04:14:24;;;;;;;6.90;1.90;;;7.90;99.90;;;;;;5020449;28;20214;-93
2023/04/13 04:21:11;;;;;;;5.50;1.77;;;8.00;99.90;;;;;;4976259;28;20202;-93
2023/04/13 04:36:57;;;;;;;6.03;1.50;;;8.10;99.90;;;;;;4963736;28;20175;-92
2023/04/13 04:39:44;;;;;;;7.67;1.90;;;8.20;98.40;;;;;;4983528;28;20220;-91
2023/04/13 04:42:47;;;;;;;5.60;1.80;;;8.30;98.90;;;;;;5053604;28;20177;-92
2023/04/13 04:45:50;;;;;;;4.30;1.57;;;8.20;99.40;;;;;;4963834;28;20242;-91
2023/04/13 04:49:11;;;;;;;;;;;;;;;;;;;;;
2023/04/13 04:51:51;;;;;;;5.93;1.53;;;8.30;99.90;;;;;;4903782;29;20273;-93
2023/04/13 04:55:05;;;;;;;5.07;1.93;;;8.30;98.90;;;;;;4959992;28;20199;-92
2023/04/13 05:05:26;;;;;;;;;;;;;;;;;;;;;
2023/04/13 05:08:31;;;;;;;;;;;;;;;;;;;;;
2023/04/13 05:10:58;;;;;;;5.73;1.70;;;8.30;97.30;;;;;;4900477;29;20209;-91
2023/04/13 05:20:35;;;;;;;4.87;1.60;;;8.30;97.50;;;;;;4904990;29;20218;-93
2023/04/13 05:24:11;;;;;;;;;;;;;;;;;;;;;
2023/04/13 05:44:34;;;;;;;10.53;2.60;;;8.60;99.90;;;;;;4958509;28;20566;-92
2023/04/13 05:48:03;;;;;;;10.80;3.07;;;8.60;99.50;;;;;;4929389;29;20267;-92
2023/04/13 05:54:48;;;;;;;11.80;3.13;;;8.60;98.30;;;;;;4903166;29;20198;-93
2023/04/13 06:05:02;;;;;;;13.30;3.27;;;8.70;93.30;;;;;;4853675;29;20199;-92
2023/04/13 06:08:15;;;;;;;10.10;2.70;;;8.70;94.20;;;;;;4883897;29;20187;-93
2023/04/13 06:11:25;;;;;;;8.00;2.90;;;8.70;93.90;;;;;;4883300;29;20199;-92
2023/04/13 06:17:58;;;;;;;13.60;3.40;;;8.80;93.90;;;;;;4862980;29;20248;-91
2023/04/13 06:20:52;;;;;;;10.90;3.00;;;8.90;92.70;;;;;;4862743;29;20640;-92
2023/04/13 06:27:38;;;;;;;;;;;;;;;;;;;;;
2023/04/13 06:37:58;;;;;;;12.20;3.80;;;9.20;74.50;;;;;;5039613;28;20188;-93
2023/04/13 06:41:25;;;;;;;14.43;3.60;;;9.20;71.70;;;;;;4968688;28;20180;-92
2023/04/13 06:56:28;;;;;;;13.20;3.43;;;9.30;51.30;;;;;;5054443;28;20785;-93
2023/04/13 06:58:59;;;;;;;11.87;2.90;;;9.30;49.70;;;;;;4978922;28;20183;-92
2023/04/13 07:04:57;;;;;;;13.37;3.30;;;9.40;37.00;;;;;;5083864;28;20179;-93
2023/04/13 07:07:52;;;;;;;12.60;3.10;;;9.40;29.80;;;;;;5062270;28;20180;-92
2023/04/13 07:13:53;;;;;;;;;;;;;;;;;;;;;
2023/04/13 07:23:57;;;;;;;14.30;4.77;;;9.70;14.10;;;;;;5013566;28;20643;-92
2023/04/13 07:27:38;;;;;;;;;;;;;;;;;;;;;
2023/04/13 07:30:07;;;;;;;;;;;;;;;;;;;;;
2023/04/13 07:33:14;;;;;;;;;;;;;;;;;;;;;
2023/04/13 07:35:53;;;;;;;12.83;3.00;;;9.70;1.00;;;;;;5076142;28;20251;-90
2023/04/13 07:38:25;;;;;;;12.83;2.77;;;9.80;1.00;;;;;;5075679;28;20176;-90
2023/04/13 07:45:01;;;;;;;;;;;;;;;;;;;;;
2023/04/13 07:47:43;;;;;;;;;;;;;;;;;;;;;
2023/04/13 07:50:30;;;;;;;7.37;3.10;;;9.90;1.00;;;;;;5076437;28;20186;-90
2023/04/13 07:52:59;;;;;;;10.47;2.87;;;9.90;1.00;;;;;;5058690;28;20195;-91
2023/04/13 07:55:25;;;;;;;10.97;2.87;;;9.90;1.00;;;;;;5058010;28;20191;-90
2023/04/13 07:58:18;;;;;;;12.00;3.20;;;10.00;1.00;;;;;;5058968;28;20188;-90
2023/04/13 08:00:43;;;;;;;9.20;2.67;;;10.10;1.00;;;;;;5076766;28;20181;-89
2023/04/13 08:03:09;;;;;;;13.13;3.37;;;10.30;1.00;;;;;;5065486;28;20183;-89
2023/04/13 08:05:35;;;;;;;9.43;2.70;;;10.30;1.00;;;;;;5078337;28;20219;-87
2023/04/13 08:08:03;;;;;;;12.53;2.90;;;10.30;1.00;;;;;;5079629;28;20187;-88
2023/04/13 08:10:54;;;;;;;10.23;3.30;;;10.20;1.00;;;;;;5079471;28;20176;-90
2023/04/13 08:13:30;;;;;;;10.03;3.07;;;10.30;1.00;;;;;;5090173;28;20280;-90
2023/04/13 08:15:59;;;;;;;11.77;2.90;;;10.30;1.00;;;;;;5065388;28;20176;-90
2023/04/13 08:18:26;;;;;;;12.37;2.90;;;10.20;1.00;;;;;;5085523;28;20207;-88
2023/04/13 08:20:53;;;;;;;15.13;3.53;;;10.20;1.00;;;;;;5063679;28;20271;-88
2023/04/13 08:23:20;;;;;;;11.50;2.47;;;10.20;1.00;;;;;;5063559;28;20242;-87
2023/04/13 08:25:46;;;;;;;10.37;3.20;;;10.30;1.00;;;;;;5073430;28;20214;-87
2023/04/13 08:28:14;;;;;;;10.80;2.93;;;10.30;1.00;;;;;;5078344;28;20196;-88
2023/04/13 08:30:41;;;;;;;10.50;2.60;;;10.30;1.00;;;;;;5092063;28;20232;-87
2023/04/13 08:33:12;;;;;;;8.63;2.37;;;10.30;1.00;;;;;;5063942;28;20184;-85
2023/04/13 08:35:39;;;;;;;11.97;2.80;;;10.40;1.00;;;;;;5095141;28;20168;-86
2023/04/13 08:38:06;;;;;;;11.23;3.00;;;10.30;1.00;;;;;;5074443;28;20186;-87
2023/04/13 08:40:40;;;;;;;10.43;2.73;;;10.40;1.00;;;;;;5062528;28;20180;-85
2023/04/13 08:43:09;;;;;;;8.73;3.13;;;10.50;1.00;;;;;;5085329;28;20233;-86
2023/04/13 08:45:41;;;;;;;11.60;3.17;;;10.50;1.00;;;;;;5079354;28;20204;-87
2023/04/13 08:48:14;;;;;;;10.93;2.93;;;10.40;1.00;;;;;;5073122;28;20181;-85
2023/04/13 08:54:01;;;;;;;10.80;3.20;;;10.30;1.00;;;;;;5075811;28;20164;-86
2023/04/13 08:56:27;;;;;;;11.30;3.13;;;10.40;1.00;;;;;;5057232;28;20230;-87
2023/04/13 08:59:02;;;;;;;9.60;3.00;;;10.50;1.00;;;;;;5056481;28;20211;-88
2023/04/13 09:01:30;;;;;;;10.10;2.60;;;10.50;1.00;;;;;;5057100;28;20234;-89
2023/04/13 09:04:10;;;;;;;13.60;3.10;;;10.60;1.00;;;;;;5056951;28;20608;-84
2023/04/13 09:06:40;;;;;;;9.93;2.20;;;10.60;1.00;;;;;;5055677;28;20251;-86
2023/04/13 09:09:14;;;;;;;19.37;3.20;;;10.70;1.00;;;;;;5057323;28;20251;-85
2023/04/13 09:11:41;;;;;;;12.77;2.87;;;10.80;1.00;;;;;;5057201;28;20181;-87
2023/04/13 09:14:09;;;;;;;10.63;3.07;;;10.70;1.00;;;;;;5074458;28;20637;-85
2023/04/13 09:16:45;;;;;;;11.70;3.20;;;10.90;1.00;;;;;;5059235;28;20200;-86
2023/04/13 09:19:12;;;;;;;9.07;2.60;;;10.90;1.00;;;;;;5059813;28;20275;-85
2023/04/13 09:21:43;;;;;;;7.30;2.50;;;10.90;1.00;;;;;;5060518;28;20271;-86
2023/04/13 09:24:10;;;;;;;9.17;2.60;;;10.80;1.00;;;;;;5059912;28;20192;-86
2023/04/13 09:26:40;;;;;;;13.63;2.80;;;10.70;1.00;;;;;;5059324;28;20228;-86
2023/04/13 09:29:10;;;;;;;9.07;2.93;;;11.00;1.00;;;;;;5060201;28;20208;-85
2023/04/13 09:31:39;;;;;;;12.37;2.97;;;11.00;1.00;;;;;;5060912;28;20223;-86
2023/04/13 09:34:08;;;;;;;12.20;3.00;;;10.80;1.00;;;;;;5059645;28;20180;-86
2023/04/13 09:36:35;;;;;;;8.63;2.77;;;10.80;1.00;;;;;;5059789;28;20270;-88
2023/04/13 09:39:02;;;;;;;10.27;2.60;;;10.80;1.00;;;;;;5062356;28;20234;-84
2023/04/13 09:41:33;;;;;;;11.33;2.63;;;11.00;1.00;;;;;;5084095;28;20648;-87
2023/04/13 09:44:00;;;;;;;6.87;2.10;;;11.10;1.00;;;;;;5060278;28;20180;-89
2023/04/13 09:46:28;;;;;;;8.10;2.60;;;11.00;1.00;;;;;;5065364;28;20259;-88
2023/04/13 09:49:01;;;;;;;9.10;2.47;;;11.10;1.00;;;;;;5061544;28;20207;-85
2023/04/13 09:51:41;;;;;;;7.57;2.43;;;11.20;1.00;;;;;;5062899;28;20188;-87
2023/04/13 09:54:10;;;;;;;10.63;3.20;;;11.50;1.00;;;;;;5079628;28;20211;-85
2023/04/13 09:56:47;;;;;;;10.73;3.00;;;11.70;1.00;;;;;;5059626;28;20242;-86
2023/04/13 09:59:17;;;;;;;10.27;2.20;;;11.70;1.00;;;;;;5078146;28;20172;-85
2023/04/13 10:01:43;;;;;;;11.37;2.90;;;11.70;1.00;;;;;;5062949;28;20184;-85
2023/04/13 10:04:09;;;;;;;7.90;2.30;;;11.50;1.00;;;;;;5071885;28;20187;-88
2023/04/13 10:06:38;;;;;;;10.97;2.57;;;11.80;1.00;;;;;;5066364;28;20242;-88
2023/04/13 10:09:06;;;;;;;9.93;2.67;;;11.80;1.00;;;;;;5068964;28;20221;-84
2023/04/13 10:11:55;;;;;;;10.10;2.30;;;11.80;1.00;;;;;;5088244;28;20189;-84
2023/04/13 10:14:25;;;;;;;7.93;2.37;;;11.70;1.00;;;;;;5072232;28;20248;-87
2023/04/13 10:17:17;;;;;;;11.40;2.80;;;11.60;1.00;;;;;;5067725;28;20293;-85
2023/04/13 10:19:47;;;;;;;11.57;2.90;;;11.50;1.00;;;;;;5062473;28;20644;-86
2023/04/13 10:22:14;;;;;;;7.00;2.10;;;11.60;1.00;;;;;;5060526;28;20180;-86
2023/04/13 10:24:40;;;;;;;10.03;3.00;;;11.70;1.00;;;;;;5062854;28;20176;-86
2023/04/13 10:27:15;;;;;;;12.53;2.43;;;11.60;1.00;;;;;;5064692;28;20260;-85
2023/04/13 10:29:44;;;;;;;8.73;3.17;;;11.60;1.00;;;;;;5072622;28;20176;-85
2023/04/13 10:32:32;;;;;;;7.80;2.23;;;11.70;1.00;;;;;;5048467;28;20668;-88
2023/04/13 10:35:11;;;;;;;9.03;2.23;;;11.90;1.00;;;;;;5063820;28;20644;-88
2023/04/13 10:37:38;;;;;;;8.40;2.53;;;11.80;1.00;;;;;;5067442;28;20251;-87
2023/04/13 10:40:12;;;;;;;8.23;2.23;;;11.70;1.00;;;;;;5067176;28;20176;-88
2023/04/13 10:42:42;;;;;;;6.87;2.13;;;11.70;1.00;;;;;;5068161;28;20231;-86
2023/04/13 10:45:27;;;;;;;7.20;2.07;;;11.80;1.00;;;;;;5062849;28;20216;-88
2023/04/13 10:48:20;;;;;;;7.37;2.20;;;12.20;1.00;;;;;;5078728;28;20174;-85
2023/04/13 10:50:57;;;;;;;5.97;1.93;;;12.20;99.90;;;;;;5044502;28;20203;-87
2023/04/13 10:53:29;;;;;;;8.93;2.30;;;12.40;99.90;;;;;;5062263;28;20238;-85
2023/04/13 10:55:56;;;;;;;4.77;2.00;;;12.50;99.90;;;;;;5069808;28;20200;-87
2023/04/13 10:58:23;;;;;;;7.20;2.10;;;12.60;99.90;;;;;;5061811;28;20183;-84
2023/04/13 11:00:53;;;;;;;8.30;2.10;;;12.30;99.90;;;;;;5072157;28;20286;-88
2023/04/13 11:03:26;;;;;;;7.47;1.70;;;12.30;99.90;;;;;;5080698;28;20173;-87
2023/04/13 11:05:58;;;;;;;7.97;2.00;;;12.10;99.90;;;;;;5079630;28;20215;-85
2023/04/13 11:08:24;;;;;;;7.47;2.03;;;12.10;99.90;;;;;;5077472;28;20358;-87
2023/04/13 11:10:53;;;;;;;7.97;2.37;;;12.20;99.90;;;;;;5084683;28;20173;-88
2023/04/13 11:13:27;;;;;;;9.87;2.60;;;12.20;99.90;;;;;;5080787;28;20206;-86
2023/04/13 11:16:06;;;;;;;8.27;2.33;;;12.60;99.90;;;;;;5061954;28;20185;-88
2023/04/13 11:18:32;;;;;;;9.73;2.13;;;12.50;99.90;;;;;;5065858;28;20204;-88
2023/04/13 11:21:07;;;;;;;6.67;2.07;;;12.50;99.90;;;;;;5077528;28;20198;-85
2023/04/13 11:23:34;;;;;;;7.07;2.20;;;12.70;99.90;;;;;;5074686;28;20176;-87
2023/04/13 11:26:04;;;;;;;9.00;2.23;;;12.70;99.90;;;;;;5070648;28;20231;-88
2023/04/13 11:28:52;;;;;;;5.93;1.70;;;12.40;99.90;;;;;;5062322;28;20164;-89
2023/04/13 11:31:17;;;;;;;11.17;2.13;;;12.40;99.90;;;;;;5061649;28;20188;-87
2023/04/13 11:33:47;;;;;;;8.37;2.00;;;12.50;1.00;;;;;;5060412;28;20335;-85
2023/04/13 11:36:19;;;;;;;5.87;1.50;;;12.80;1.00;;;;;;5061356;28;20644;-87
2023/04/13 11:38:48;;;;;;;8.17;2.03;;;12.90;99.90;;;;;;5060917;28;20180;-88
2023/04/13 11:41:14;;;;;;;5.57;1.90;;;13.00;99.90;;;;;;5060157;28;20188;-87
2023/04/13 11:43:40;;;;;;;6.43;1.50;;;13.20;1.00;;;;;;5060446;28;20177;-88
2023/04/13 11:46:11;;;;;;;8.33;2.00;;;13.00;1.00;;;;;;5060033;28;20220;-87
2023/04/13 11:48:40;;;;;;;11.70;4.80;;;13.00;99.90;;;;;;5060321;28;20181;-86
2023/04/13 11:51:07;;;;;;;5.80;2.17;;;12.90;99.90;;;;;;5060925;28;20197;-87
2023/04/13 11:53:37;;;;;;;7.57;2.00;;;12.90;99.90;;;;;;5059366;28;20177;-88
2023/04/13 11:56:05;;;;;;;6.67;2.00;;;13.00;99.90;;;;;;5079236;28;20192;-88
2023/04/13 11:58:36;;;;;;;6.67;2.10;;;13.00;99.90;;;;;;5070617;28;20196;-87
2023/04/13 12:01:06;;;;;;;3.17;1.50;;;13.10;99.90;;;;;;5079337;28;20171;-84
2023/04/13 12:03:35;;;;;;;5.57;1.50;;;13.10;1.00;;;;;;5087331;28;20253;-87
2023/04/13 12:06:11;;;;;;;6.63;1.60;;;13.30;4.90;;;;;;5090834;28;20186;-86
2023/04/13 12:08:39;;;;;;;6.53;1.60;;;13.40;1.00;;;;;;5066133;28;20184;-87
2023/04/13 12:11:05;;;;;;;5.13;1.40;;;13.80;1.00;;;;;;5069670;28;20198;-87
2023/04/13 12:13:50;;;;;;;5.57;1.90;;;13.50;99.90;;;;;;5068357;28;20200;-85
2023/04/13 12:16:35;;;;;;;5.07;1.37;;;13.70;99.90;;;;;;5071214;28;20174;-87
2023/04/13 12:19:07;;;;;;;13.53;5.80;;;13.60;99.90;;;;;;5066681;28;20506;-87
2023/04/13 12:21:35;;;;;;;6.23;2.13;;;13.70;99.90;;;;;;5082281;28;20177;-85
2023/04/13 12:26:50;;;;;;;4.37;1.57;;;13.80;1.00;;;;;;5079289;28;20233;-88
2023/04/13 12:29:22;;;;;;;6.20;1.70;;;13.90;1.00;;;;;;5078172;28;20192;-87
2023/04/13 12:31:47;;;;;;;6.30;1.77;;;14.20;1.00;;;;;;5060701;28;20192;-86
2023/04/13 12:34:16;;;;;;;7.50;2.20;;;14.20;99.90;;;;;;5060293;28;20281;-86
2023/04/13 12:36:43;;;;;;;4.00;1.70;;;14.20;99.90;;;;;;5063665;28;20188;-85
2023/04/13 12:39:09;;;;;;;5.53;1.40;;;14.20;99.90;;;;;;5059610;28;20259;-87
2023/04/13 12:41:34;;;;;;;3.67;1.33;;;13.90;1.00;;;;;;5058441;28;20634;-86
2023/04/13 12:44:01;;;;;;;6.67;1.60;;;13.60;1.00;;;;;;5075032;28;20225;-85
2023/04/13 12:46:29;;;;;;;3.90;1.30;;;13.70;99.90;;;;;;5072984;28;20256;-83
2023/04/13 12:49:01;;;;;;;6.53;1.50;;;13.90;1.00;;;;;;5050554;28;20190;-86
2023/04/13 12:51:30;;;;;;;5.77;1.63;;;13.90;1.00;;;;;;5062065;28;20182;-86
2023/04/13 12:53:56;;;;;;;6.03;1.70;;;14.00;73.60;;;;;;5067147;28;20191;-86
2023/04/13 12:56:23;;;;;;;5.27;1.53;;;14.00;1.00;;;;;;5061324;28;20291;-85
2023/04/13 12:58:51;;;;;;;5.90;1.27;;;14.00;99.90;;;;;;5062313;28;20179;-86
2023/04/13 13:01:20;;;;;;;5.27;1.50;;;14.00;99.90;;;;;;5029279;28;20184;-86
2023/04/13 13:03:47;;;;;;;5.13;1.27;;;14.00;1.00;;;;;;5081610;28;20318;-85
2023/04/13 13:06:14;;;;;;;5.47;1.30;;;14.10;1.00;;;;;;5063831;28;20254;-84
2023/04/13 13:08:39;;;;;;;4.83;1.33;;;14.30;73.10;;;;;;5063158;28;20850;-85
2023/04/13 13:11:07;;;;;;;5.10;1.90;;;14.60;1.00;;;;;;5047081;28;20208;-87
2023/04/13 13:13:33;;;;;;;6.00;1.50;;;14.50;1.00;;;;;;5061943;28;20679;-85
2023/04/13 13:15:59;;;;;;;5.23;1.60;;;14.50;99.90;;;;;;5062449;28;20178;-84
2023/04/13 13:18:24;;;;;;;6.27;1.57;;;14.50;99.90;;;;;;5062908;28;20204;-84
2023/04/13 13:20:54;;;;;;;6.00;1.70;;;14.40;99.90;;;;;;5061253;28;20234;-84
2023/04/13 13:23:20;;;;;;;8.20;1.73;;;14.30;99.90;;;;;;5080627;28;20204;-88
2023/04/13 13:25:49;;;;;;;5.57;1.70;;;14.30;1.00;;;;;;5063565;28;20229;-87
2023/04/13 13:28:18;;;;;;;6.47;1.83;;;14.20;99.90;;;;;;5061365;28;20272;-88
2023/04/13 13:30:44;;;;;;;6.60;1.73;;;14.20;1.00;;;;;;5043932;28;20190;-85
2023/04/13 13:33:11;;;;;;;4.57;1.30;;;14.10;99.90;;;;;;5065264;28;20182;-84
2023/04/13 13:35:38;;;;;;;4.07;1.63;;;14.20;99.90;;;;;;5067062;28;20230;-85
2023/04/13 13:38:05;;;;;;;4.87;1.90;;;14.10;1.00;;;;;;5044918;28;20540;-85
2023/04/13 13:40:31;;;;;;;7.30;1.97;;;14.20;1.00;;;;;;5061846;28;20192;-88
2023/04/13 13:42:56;;;;;;;6.47;1.60;;;14.50;99.90;;;;;;5062059;28;20179;-87
2023/04/13 13:45:22;;;;;;;6.60;2.00;;;14.60;1.00;;;;;;5061924;28;20214;-85
2023/04/13 13:47:53;;;;;;;5.37;1.63;;;14.70;99.90;;;;;;5081487;28;20733;-86
2023/04/13 13:50:20;;;;;;;6.37;2.00;;;14.90;1.00;;;;;;5078342;28;20184;-87
2023/04/13 13:52:50;;;;;;;4.03;1.60;;;14.70;99.90;;;;;;5072596;28;20183;-86
2023/04/13 13:55:18;;;;;;;7.70;1.80;;;14.50;59.40;;;;;;5072259;28;20545;-87
2023/04/13 13:57:47;;;;;;;5.07;1.57;;;14.50;52.50;;;;;;5047356;28;20223;-89
2023/04/13 14:00:18;;;;;;;6.10;1.73;;;14.60;99.90;;;;;;5077478;28;20287;-86
2023/04/13 14:02:46;;;;;;;7.23;1.93;;;14.70;99.90;;;;;;5069540;28;20277;-86
2023/04/13 14:05:20;;;;;;;5.23;1.90;;;14.90;94.70;;;;;;5048697;28;20228;-86
2023/04/13 14:07:46;;;;;;;7.70;1.73;;;14.70;1.00;;;;;;5066676;28;20660;-86
2023/04/13 14:10:12;;;;;;;3.80;1.30;;;14.60;1.00;;;;;;5078805;28;20230;-85
2023/04/13 14:12:39;;;;;;;6.37;2.10;;;14.50;68.10;;;;;;5082051;28;20202;-85
2023/04/13 14:15:07;;;;;;;7.43;1.93;;;14.30;38.60;;;;;;5081036;28;20170;-84
2023/04/13 14:17:36;;;;;;;6.13;2.33;;;14.20;99.90;;;;;;5080969;28;20224;-86
2023/04/13 14:20:23;;;;;;;9.60;2.13;;;14.50;99.90;;;;;;5069854;28;20605;-86
2023/04/13 14:22:56;;;;;;;7.17;2.00;;;14.30;99.90;;;;;;5067802;28;20181;-88
2023/04/13 14:25:22;;;;;;;5.13;1.77;;;14.60;99.90;;;;;;5064301;28;20219;-87
2023/04/13 14:27:49;;;;;;;7.03;1.70;;;14.40;99.90;;;;;;5062938;28;20189;-87
2023/04/13 14:30:16;;;;;;;8.83;2.10;;;14.40;1.00;;;;;;5080072;28;20177;-87
2023/04/13 14:32:45;;;;;;;6.90;2.27;;;14.30;1.00;;;;;;5060821;28;20253;-86
2023/04/13 14:35:11;;;;;;;7.27;2.53;;;14.30;99.90;;;;;;5051765;28;20182;-85
2023/04/13 14:37:38;;;;;;;7.80;2.40;;;14.30;62.10;;;;;;5074237;28;20190;-84
2023/04/13 14:40:12;;;;;;;6.07;1.87;;;14.40;1.00;;;;;;5068240;28;20190;-88
2023/04/13 14:42:40;;;;;;;7.60;2.23;;;14.60;1.00;;;;;;5060819;28;20184;-86
2023/04/13 14:45:09;;;;;;;6.20;1.93;;;14.70;99.90;;;;;;5060847;28;20187;-85
2023/04/13 14:47:36;;;;;;;7.53;2.03;;;14.70;99.90;;;;;;5060482;28;20564;-85
2023/04/13 14:50:07;;;;;;;7.87;2.27;;;14.70;99.90;;;;;;5060949;28;20538;-88
2023/04/13 14:52:32;;;;;;;7.60;1.93;;;14.90;1.00;;;;;;5059517;28;20190;-86
2023/04/13 14:54:58;;;;;;;5.73;1.90;;;15.10;65.20;;;;;;5062093;28;20192;-85
2023/04/13 14:57:25;;;;;;;6.10;2.00;;;14.90;1.00;;;;;;5060835;28;20305;-87
2023/04/13 14:59:51;;;;;;;5.07;1.90;;;15.20;1.00;;;;;;5059856;28;20248;-87
2023/04/13 15:02:17;;;;;;;7.07;2.03;;;15.40;1.00;;;;;;5060445;28;20211;-85
2023/04/13 15:04:42;;;;;;;4.70;1.30;;;15.70;99.90;;;;;;5064216;28;20636;-87
2023/04/13 15:07:08;;;;;;;5.50;1.80;;;15.30;99.90;;;;;;5058358;28;20703;-86
2023/04/13 15:09:37;;;;;;;5.17;1.90;;;15.40;99.90;;;;;;5058598;28;20249;-86
2023/04/13 15:12:04;;;;;;;7.33;2.00;;;15.10;99.90;;;;;;5060602;28;20191;-86
2023/04/13 15:14:30;;;;;;;6.17;1.70;;;15.30;99.90;;;;;;5062103;28;20565;-87
2023/04/13 15:16:56;;;;;;;5.67;1.70;;;15.40;99.90;;;;;;5077497;28;20196;-84
2023/04/13 15:19:22;;;;;;;3.70;1.40;;;15.20;1.00;;;;;;5076960;28;20183;-85
2023/04/13 15:21:48;;;;;;;6.30;1.83;;;14.80;1.00;;;;;;5057728;28;20180;-87
2023/04/13 15:24:16;;;;;;;4.37;1.77;;;14.70;15.90;;;;;;5056576;28;20227;-86
2023/04/13 15:26:41;;;;;;;5.03;1.47;;;14.80;31.80;;;;;;5069085;28;20219;-86
2023/04/13 15:29:08;;;;;;;6.67;1.80;;;14.90;10.70;;;;;;5078859;28;20263;-85
2023/04/13 15:31:35;;;;;;;5.30;1.40;;;15.20;1.00;;;;;;5079500;28;20175;-85
2023/04/13 15:34:05;;;;;;;5.30;1.30;;;15.30;1.00;;;;;;5096857;28;20179;-86
2023/04/13 15:36:30;;;;;;;3.80;1.20;;;14.90;1.00;;;;;;5078096;28;20276;-90
2023/04/13 15:38:57;;;;;;;3.50;1.40;;;14.80;1.00;;;;;;5056806;28;20320;-87
2023/04/13 15:41:22;;;;;;;6.40;1.50;;;14.70;1.00;;;;;;5069793;28;20592;-87
2023/04/13 15:43:51;;;;;;;4.80;1.33;;;14.70;1.00;;;;;;5072168;28;20254;-87
2023/04/13 15:46:17;;;;;;;12.83;2.37;;;14.50;1.00;;;;;;5057192;28;20215;-86
2023/04/13 15:48:45;;;;;;;7.80;2.10;;;14.60;1.00;;;;;;5080641;28;20181;-88
2023/04/13 15:51:11;;;;;;;7.20;2.07;;;14.50;99.90;;;;;;5062109;28;20199;-86
2023/04/13 15:53:37;;;;;;;7.97;2.00;;;14.40;48.60;;;;;;5079895;28;20172;-87
2023/04/13 15:56:06;;;;;;;8.20;2.30;;;14.40;1.00;;;;;;5065431;28;20183;-86
2023/04/13 15:58:32;;;;;;;7.57;2.70;;;14.00;1.00;;;;;;5069806;28;20184;-86
2023/04/13 16:01:04;;;;;;;10.27;2.97;;;14.00;1.00;;;;;;5075660;28;20195;-86
2023/04/13 16:03:32;;;;;;;10.27;3.47;;;14.10;99.90;;;;;;5074725;28;20218;-85
2023/04/13 16:05:58;;;;;;;12.67;3.57;;;14.00;99.90;;;;;;5073411;28;20255;-86
2023/04/13 16:08:24;;;;;;;10.73;3.47;;;13.80;1.00;;;;;;5102476;28;20179;-87
2023/04/13 16:10:50;;;;;;;8.27;3.07;;;13.70;98.00;;;;;;5083710;28;20207;-87
2023/04/13 16:13:19;;;;;;;7.73;2.80;;;13.50;1.00;;;;;;5069493;28;20193;-85
2023/04/13 16:15:54;;;;;;;9.57;3.37;;;13.30;99.90;;;;;;5069760;28;20239;-86
2023/04/13 16:18:24;;;;;;;12.90;3.17;;;13.10;1.00;;;;;;5076369;28;20195;-87
2023/04/13 16:20:58;;;;;;;11.63;3.17;;;13.10;10.50;;;;;;5094354;28;20252;-84
2023/04/13 16:23:32;;;;;;;11.03;3.20;;;13.20;99.90;;;;;;5066893;28;20181;-87
2023/04/13 16:26:01;;;;;;;6.90;2.33;;;13.10;99.90;;;;;;5062920;28;20226;-85
2023/04/13 16:28:28;;;;;;;7.80;2.03;;;13.10;94.80;;;;;;5088629;28;20179;-86
2023/04/13 16:30:55;;;;;;;5.43;2.00;;;13.00;1.00;;;;;;5070890;28;20219;-86
2023/04/13 16:33:21;;;;;;;6.20;2.17;;;12.90;1.00;;;;;;5091718;28;20181;-84
2023/04/13 16:35:47;;;;;;;9.37;2.23;;;12.80;1.00;;;;;;5071448;28;20221;-86
2023/04/13 16:38:13;;;;;;;5.83;1.90;;;13.00;1.00;;;;;;5071687;28;20547;-87
2023/04/13 16:40:40;;;;;;;5.13;1.90;;;12.80;1.00;;;;;;5071588;28;20182;-85
2023/04/13 16:43:05;;;;;;;6.33;2.10;;;12.50;21.60;;;;;;5069243;28;20270;-85
2023/04/13 16:45:31;;;;;;;5.20;2.30;;;12.60;87.80;;;;;;5076910;28;20262;-87
2023/04/13 16:47:57;;;;;;;7.30;2.10;;;12.50;99.90;;;;;;5079223;28;20204;-85
2023/04/13 16:50:27;;;;;;;5.13;2.17;;;12.50;99.90;;;;;;5065036;28;20184;-86
2023/04/13 16:52:55;;;;;;;6.70;2.27;;;12.80;91.20;;;;;;5080802;28;20183;-86
2023/04/13 16:55:26;;;;;;;9.23;2.20;;;13.10;28.10;;;;;;5054006;28;20198;-87
2023/04/13 16:57:54;;;;;;;4.07;1.50;;;13.40;1.00;;;;;;5083982;28;20219;-87
2023/04/13 17:00:39;;;;;;;6.87;2.07;;;13.70;99.90;;;;;;5083614;28;20170;-91
2023/04/13 17:03:06;;;;;;;4.23;1.70;;;13.60;99.90;;;;;;5084439;28;20189;-91
2023/04/13 17:05:34;;;;;;;5.57;1.50;;;13.50;99.90;;;;;;5087297;28;20245;-88
2023/04/13 17:08:03;;;;;;;6.37;1.80;;;13.50;74.10;;;;;;5077846;28;20189;-86
2023/04/13 17:11:10;;;;;;;6.67;1.70;;;13.70;1.00;;;;;;5098982;28;20235;-90
2023/04/13 17:13:45;;;;;;;6.00;1.90;;;14.10;1.00;;;;;;5077021;28;20188;-88
2023/04/13 17:16:17;;;;;;;4.70;1.60;;;14.90;1.00;;;;;;5081895;28;20175;-86
2023/04/13 17:18:45;;;;;;;4.50;1.73;;;15.90;1.00;;;;;;5067805;28;20280;-87
2023/04/13 17:21:13;;;;;;;4.50;1.70;;;16.40;87.00;;;;;;5065155;28;20188;-89
2023/04/13 17:23:39;;;;;;;5.80;1.90;;;16.10;99.90;;;;;;5083245;28;20235;-88
2023/04/13 17:26:06;;;;;;;8.07;1.90;;;15.40;1.00;;;;;;5087268;28;20215;-89
2023/04/13 17:28:44;;;;;;;5.33;1.83;;;14.60;1.00;;;;;;5101389;28;20184;-91
2023/04/13 17:31:15;;;;;;;5.97;1.70;;;14.20;1.00;;;;;;5106604;28;20214;-87
2023/04/13 17:33:43;;;;;;;5.73;1.50;;;13.80;1.00;;;;;;5084223;28;20209;-86
2023/04/13 17:36:14;;;;;;;8.80;1.87;;;13.30;99.90;;;;;;5083361;28;20195;-90
2023/04/13 17:38:43;;;;;;;5.93;1.73;;;13.20;99.90;;;;;;5061726;28;20184;-90
2023/04/13 17:41:12;;;;;;;4.80;1.83;;;13.10;1.00;;;;;;5097866;28;20193;-88
2023/04/13 17:43:45;;;;;;;4.97;1.80;;;13.10;99.90;;;;;;5095167;28;20191;-89
2023/04/13 17:46:12;;;;;;;7.33;1.97;;;13.10;99.90;;;;;;5107751;28;20211;-87
2023/04/13 17:48:41;;;;;;;6.30;2.03;;;13.00;99.90;;;;;;5083468;28;20173;-91
2023/04/13 17:51:12;;;;;;;6.60;2.20;;;13.10;99.90;;;;;;5084510;28;20181;-88